GOSP

Podor Airport

Podor, Senegal
METAR GOSP 171200Z 04002KT CAVOK 30/03 Q1016
Observed Flight Rules
Dec-17 @ 12:00 UTC (3 hours ago) Visual Flight Rules
Wind Visibility Clouds
40° at 2 knots 10,000+ meters
  • Clear skies
Temperatures Readings
Current 30°C / 86°F
Dewpoint 3°C / 37°F
Humidity 18%
Altimeter 30" Hg
Pressure 1016 hPa
Elevation 7
METAR GOSP 171200Z 04002KT CAVOK 30/03 Q1016
Observed Flight Rules
Dec-17 @ 12:00 UTC
(3 hours ago)
VFR
Wind Visibility
40° at 2 knots 10,000+ meters
Clouds
  • Clear skies
Temperature Dewpoint
30°C / 86°F 3°C / 37°F
Humidity Altimeter Pressure
18% 30" Hg 1016 hPa